sensor_id;sensor_type;location;lat;lon;timestamp;pressure;altitude;pressure_sealevel;temperature;humidity
50854;BME280;44154;45.506;-122.806;2023-04-16T00:01:00;100959.66;;;24.28;32.95
50854;BME280;44154;45.506;-122.806;2023-04-16T00:03:26;100983.69;;;24.43;32.83
50854;BME280;44154;45.506;-122.806;2023-04-16T00:05:52;100974.34;;;24.39;32.67
50854;BME280;44154;45.506;-122.806;2023-04-16T00:08:21;100988.69;;;24.46;32.86
50854;BME280;44154;45.506;-122.806;2023-04-16T00:10:50;100968.78;;;24.34;32.89
50854;BME280;44154;45.506;-122.806;2023-04-16T00:13:16;100987.84;;;24.46;32.76
50854;BME280;44154;45.506;-122.806;2023-04-16T00:15:42;100972.75;;;24.43;33.10
50854;BME280;44154;45.506;-122.806;2023-04-16T00:18:09;100974.41;;;24.44;32.85
50854;BME280;44154;45.506;-122.806;2023-04-16T00:20:35;100972.84;;;24.48;32.75
50854;BME280;44154;45.506;-122.806;2023-04-16T00:23:01;100977.81;;;24.51;32.76
50854;BME280;44154;45.506;-122.806;2023-04-16T00:25:27;100961.75;;;24.38;32.52
50854;BME280;44154;45.506;-122.806;2023-04-16T00:27:53;100953.28;;;24.39;32.10
50854;BME280;44154;45.506;-122.806;2023-04-16T00:30:20;100965.03;;;24.40;32.10
50854;BME280;44154;45.506;-122.806;2023-04-16T00:32:46;100965.88;;;24.40;32.05
50854;BME280;44154;45.506;-122.806;2023-04-16T00:35:12;100959.81;;;24.38;32.19
50854;BME280;44154;45.506;-122.806;2023-04-16T00:37:38;100969.19;;;24.42;32.54
50854;BME280;44154;45.506;-122.806;2023-04-16T00:40:05;100966.72;;;24.41;32.47
50854;BME280;44154;45.506;-122.806;2023-04-16T00:42:32;100966.81;;;24.46;32.55
50854;BME280;44154;45.506;-122.806;2023-04-16T00:44:58;100978.31;;;24.48;32.64
50854;BME280;44154;45.506;-122.806;2023-04-16T00:47:24;100957.34;;;24.37;32.42
50854;BME280;44154;45.506;-122.806;2023-04-16T00:49:52;100969.78;;;24.45;32.31
50854;BME280;44154;45.506;-122.806;2023-04-16T00:52:19;100967.28;;;24.43;32.33
50854;BME280;44154;45.506;-122.806;2023-04-16T00:54:45;100967.28;;;24.43;32.26
50854;BME280;44154;45.506;-122.806;2023-04-16T00:57:13;100961.50;;;24.39;32.39
50854;BME280;44154;45.506;-122.806;2023-04-16T00:59:40;100938.13;;;24.32;32.52
50854;BME280;44154;45.506;-122.806;2023-04-16T01:02:07;100953.03;;;24.41;32.65
50854;BME280;44154;45.506;-122.806;2023-04-16T01:04:33;100956.53;;;24.36;32.49
50854;BME280;44154;45.506;-122.806;2023-04-16T01:07:00;100955.19;;;24.39;32.54
50854;BME280;44154;45.506;-122.806;2023-04-16T01:09:26;100930.34;;;24.23;32.57
50854;BME280;44154;45.506;-122.806;2023-04-16T01:11:52;100954.53;;;24.32;32.59
50854;BME280;44154;45.506;-122.806;2023-04-16T01:14:18;100951.81;;;24.32;32.55
50854;BME280;44154;45.506;-122.806;2023-04-16T01:16:45;100942.44;;;24.28;32.70
50854;BME280;44154;45.506;-122.806;2023-04-16T01:19:11;100942.44;;;24.28;32.61
50854;BME280;44154;45.506;-122.806;2023-04-16T01:21:37;100940.88;;;24.32;32.52
50854;BME280;44154;45.506;-122.806;2023-04-16T01:24:04;100946.34;;;24.32;32.54
50854;BME280;44154;45.506;-122.806;2023-04-16T01:26:30;100949.06;;;24.32;32.46
50854;BME280;44154;45.506;-122.806;2023-04-16T01:28:57;100958.34;;;24.31;32.62
50854;BME280;44154;45.506;-122.806;2023-04-16T01:31:23;100947.91;;;24.28;32.59
50854;BME280;44154;45.506;-122.806;2023-04-16T01:33:49;100939.34;;;24.24;32.65
50854;BME280;44154;45.506;-122.806;2023-04-16T01:36:15;100950.03;;;24.25;32.63
50854;BME280;44154;45.506;-122.806;2023-04-16T01:38:41;100947.56;;;24.24;32.34
50854;BME280;44154;45.506;-122.806;2023-04-16T01:41:08;100898.19;;;23.97;33.01
50854;BME280;44154;45.506;-122.806;2023-04-16T01:43:34;100941.28;;;24.23;32.95
50854;BME280;44154;45.506;-122.806;2023-04-16T01:46:32;100934.81;;;24.30;32.87
50854;BME280;44154;45.506;-122.806;2023-04-16T01:49:01;100926.53;;;24.24;32.99
50854;BME280;44154;45.506;-122.806;2023-04-16T01:51:27;100929.41;;;24.35;32.79
50854;BME280;44154;45.506;-122.806;2023-04-16T01:53:54;100919.47;;;24.29;32.85
50854;BME280;44154;45.506;-122.806;2023-04-16T01:56:20;100941.00;;;24.42;32.96
50854;BME280;44154;45.506;-122.806;2023-04-16T01:58:46;100932.81;;;24.42;32.96
50854;BME280;44154;45.506;-122.806;2023-04-16T02:01:13;100923.44;;;24.38;33.38
50854;BME280;44154;45.506;-122.806;2023-04-16T02:03:39;100927.34;;;24.42;33.29
50854;BME280;44154;45.506;-122.806;2023-04-16T02:06:06;100927.34;;;24.42;33.31
50854;BME280;44154;45.506;-122.806;2023-04-16T02:08:32;100933.88;;;24.41;33.24
50854;BME280;44154;45.506;-122.806;2023-04-16T02:10:59;100925.66;;;24.41;33.28
50854;BME280;44154;45.506;-122.806;2023-04-16T02:13:25;100918.53;;;24.40;33.45
50854;BME280;44154;45.506;-122.806;2023-04-16T02:15:52;100895.84;;;24.22;33.62
50854;BME280;44154;45.506;-122.806;2023-04-16T02:18:18;100913.00;;;24.35;33.74
50854;BME280;44154;45.506;-122.806;2023-04-16T02:20:45;100912.81;;;24.41;33.79
50854;BME280;44154;45.506;-122.806;2023-04-16T02:23:12;100915.53;;;24.41;33.57
50854;BME280;44154;45.506;-122.806;2023-04-16T02:25:43;100905.38;;;24.37;33.98
50854;BME280;44154;45.506;-122.806;2023-04-16T02:28:11;100908.94;;;24.37;33.75
50854;BME280;44154;45.506;-122.806;2023-04-16T02:30:39;100901.47;;;24.33;33.93
50854;BME280;44154;45.506;-122.806;2023-04-16T02:33:08;100897.34;;;24.30;34.08
50854;BME280;44154;45.506;-122.806;2023-04-16T02:35:35;100899.66;;;24.21;34.53
50854;BME280;44154;45.506;-122.806;2023-04-16T02:38:02;100899.19;;;24.24;34.15
50854;BME280;44154;45.506;-122.806;2023-04-16T02:40:29;100892.88;;;24.24;34.08
50854;BME280;44154;45.506;-122.806;2023-04-16T02:42:56;100888.50;;;24.23;33.61
50854;BME280;44154;45.506;-122.806;2023-04-16T02:45:23;100901.31;;;24.39;33.71
50854;BME280;44154;45.506;-122.806;2023-04-16T02:47:50;100891.66;;;24.54;33.45
50854;BME280;44154;45.506;-122.806;2023-04-16T02:50:16;100892.72;;;24.53;33.36
50854;BME280;44154;45.506;-122.806;2023-04-16T02:52:43;100884.06;;;24.39;33.50
50854;BME280;44154;45.506;-122.806;2023-04-16T02:55:10;100898.97;;;24.48;33.21
50854;BME280;44154;45.506;-122.806;2023-04-16T02:57:36;100896.47;;;24.47;33.13
50854;BME280;44154;45.506;-122.806;2023-04-16T03:00:02;100895.66;;;24.46;33.16
50854;BME280;44154;45.506;-122.806;2023-04-16T03:02:32;100895.28;;;24.37;33.29
50854;BME280;44154;45.506;-122.806;2023-04-16T03:04:58;100900.97;;;24.36;33.16
50854;BME280;44154;45.506;-122.806;2023-04-16T03:07:24;100896.00;;;24.33;32.97
50854;BME280;44154;45.506;-122.806;2023-04-16T03:09:51;100899.19;;;24.24;33.10
50854;BME280;44154;45.506;-122.806;2023-04-16T03:12:17;100885.66;;;24.18;33.18
50854;BME280;44154;45.506;-122.806;2023-04-16T03:14:43;100898.28;;;24.19;33.37
50854;BME280;44154;45.506;-122.806;2023-04-16T03:17:09;100904.31;;;24.21;33.49
50854;BME280;44154;45.506;-122.806;2023-04-16T03:19:36;100905.72;;;24.23;33.58
50854;BME280;44154;45.506;-122.806;2023-04-16T03:22:02;100888.66;;;24.16;33.36
50854;BME280;44154;45.506;-122.806;2023-04-16T03:24:28;100889.38;;;24.29;33.06
50854;BME280;44154;45.506;-122.806;2023-04-16T03:26:56;100887.78;;;24.33;33.39
50854;BME280;44154;45.506;-122.806;2023-04-16T03:29:22;100876.19;;;24.25;33.43
50854;BME280;44154;45.506;-122.806;2023-04-16T03:31:49;100886.22;;;24.37;33.56
50854;BME280;44154;45.506;-122.806;2023-04-16T03:34:15;100887.28;;;24.36;33.21
50854;BME280;44154;45.506;-122.806;2023-04-16T03:36:41;100893.00;;;24.34;33.21
50854;BME280;44154;45.506;-122.806;2023-04-16T03:39:07;100886.41;;;24.30;33.43
50854;BME280;44154;45.506;-122.806;2023-04-16T03:41:33;100891.69;;;24.37;33.38
50854;BME280;44154;45.506;-122.806;2023-04-16T03:43:59;100890.63;;;24.38;33.30
50854;BME280;44154;45.506;-122.806;2023-04-16T03:46:25;100874.56;;;24.24;33.43
50854;BME280;44154;45.506;-122.806;2023-04-16T03:48:52;100877.31;;;24.24;33.68
50854;BME280;44154;45.506;-122.806;2023-04-16T03:51:18;100885.25;;;24.26;33.50
50854;BME280;44154;45.506;-122.806;2023-04-16T03:53:44;100888.81;;;24.27;33.52
50854;BME280;44154;45.506;-122.806;2023-04-16T03:56:10;100868.84;;;24.09;33.66
50854;BME280;44154;45.506;-122.806;2023-04-16T03:58:36;100888.16;;;24.19;33.43
50854;BME280;44154;45.506;-122.806;2023-04-16T04:01:03;100891.78;;;24.25;33.65
50854;BME280;44154;45.506;-122.806;2023-04-16T04:03:29;100892.88;;;24.24;33.57
50854;BME280;44154;45.506;-122.806;2023-04-16T04:05:55;100897.50;;;24.23;33.59
50854;BME280;44154;45.506;-122.806;2023-04-16T04:08:21;100897.84;;;24.27;33.59
50854;BME280;44154;45.506;-122.806;2023-04-16T04:10:47;100897.50;;;24.23;33.31
50854;BME280;44154;45.506;-122.806;2023-04-16T04:13:13;100890.38;;;24.22;34.10
50854;BME280;44154;45.506;-122.806;2023-04-16T04:15:40;100896.03;;;24.16;34.46
50854;BME280;44154;45.506;-122.806;2023-04-16T04:18:06;100897.16;;;24.37;34.19
50854;BME280;44154;45.506;-122.806;2023-04-16T04:20:32;100910.00;;;24.53;33.48
50854;BME280;44154;45.506;-122.806;2023-04-16T04:22:58;100909.56;;;24.62;33.58
50854;BME280;44154;45.506;-122.806;2023-04-16T04:25:24;100918.38;;;24.64;33.57
50854;BME280;44154;45.506;-122.806;2023-04-16T04:27:51;100920.25;;;24.63;33.41
50854;BME280;44154;45.506;-122.806;2023-04-16T04:30:17;100918.50;;;24.57;33.33
50854;BME280;44154;45.506;-122.806;2023-04-16T04:32:43;100922.06;;;24.57;33.51
50854;BME280;44154;45.506;-122.806;2023-04-16T04:35:09;100923.72;;;24.58;33.37
50854;BME280;44154;45.506;-122.806;2023-04-16T04:37:36;100908.75;;;24.44;33.37
50854;BME280;44154;45.506;-122.806;2023-04-16T04:40:02;100929.19;;;24.58;33.48
50854;BME280;44154;45.506;-122.806;2023-04-16T04:42:28;100928.63;;;24.56;33.29
50854;BME280;44154;45.506;-122.806;2023-04-16T04:44:54;100916.72;;;24.46;33.20
50854;BME280;44154;45.506;-122.806;2023-04-16T04:47:21;100927.22;;;24.54;33.24
50854;BME280;44154;45.506;-122.806;2023-04-16T04:49:47;100914.88;;;24.51;33.26
50854;BME280;44154;45.506;-122.806;2023-04-16T04:52:13;100882.53;;;24.26;33.15
50854;BME280;44154;45.506;-122.806;2023-04-16T04:54:39;100917.56;;;24.46;33.36
50854;BME280;44154;45.506;-122.806;2023-04-16T04:57:07;100914.88;;;24.51;33.52
50854;BME280;44154;45.506;-122.806;2023-04-16T04:59:33;100909.41;;;24.51;33.05
50854;BME280;44154;45.506;-122.806;2023-04-16T05:01:59;100919.31;;;24.57;33.32
50854;BME280;44154;45.506;-122.806;2023-04-16T05:04:29;100918.50;;;24.57;33.41
50854;BME280;44154;45.506;-122.806;2023-04-16T05:06:55;100903.41;;;24.54;33.22
50854;BME280;44154;45.506;-122.806;2023-04-16T05:09:21;100892.97;;;24.51;33.14
50854;BME280;44154;45.506;-122.806;2023-04-16T05:11:47;100907.69;;;24.62;33.12
50854;BME280;44154;45.506;-122.806;2023-04-16T05:14:13;100911.22;;;24.63;33.14
50854;BME280;44154;45.506;-122.806;2023-04-16T05:16:40;100912.91;;;24.64;33.00
50854;BME280;44154;45.506;-122.806;2023-04-16T05:19:06;100910.66;;;24.61;33.00
50854;BME280;44154;45.506;-122.806;2023-04-16T05:21:33;100901.38;;;24.62;33.14
50854;BME280;44154;45.506;-122.806;2023-04-16T05:23:59;100902.47;;;24.61;33.15
50854;BME280;44154;45.506;-122.806;2023-04-16T05:26:25;100910.06;;;24.58;33.72
50854;BME280;44154;45.506;-122.806;2023-04-16T05:28:51;100912.47;;;24.55;33.64
50854;BME280;44154;45.506;-122.806;2023-04-16T05:31:17;100908.25;;;24.47;33.58
50854;BME280;44154;45.506;-122.806;2023-04-16T05:33:43;100905.13;;;24.38;33.80
50854;BME280;44154;45.506;-122.806;2023-04-16T05:36:10;100918.53;;;24.40;33.60
50854;BME280;44154;45.506;-122.806;2023-04-16T05:38:36;100912.91;;;24.30;34.07
50854;BME280;44154;45.506;-122.806;2023-04-16T05:41:02;100912.34;;;24.28;34.69
50854;BME280;44154;45.506;-122.806;2023-04-16T05:43:28;100912.25;;;24.22;34.51
50854;BME280;44154;45.506;-122.806;2023-04-16T05:45:54;100901.50;;;24.16;35.03
50854;BME280;44154;45.506;-122.806;2023-04-16T05:48:20;100908.88;;;24.15;35.06
50854;BME280;44154;45.506;-122.806;2023-04-16T05:50:48;100898.03;;;24.20;34.88
50854;BME280;44154;45.506;-122.806;2023-04-16T05:53:15;100891.53;;;24.27;34.79
50854;BME280;44154;45.506;-122.806;2023-04-16T05:55:43;100875.50;;;24.13;35.01
50854;BME280;44154;45.506;-122.806;2023-04-16T05:58:09;100865.53;;;24.07;34.79
50854;BME280;44154;45.506;-122.806;2023-04-16T06:00:35;100887.66;;;24.22;35.16
50854;BME280;44154;45.506;-122.806;2023-04-16T06:03:02;100889.06;;;24.25;34.95
50854;BME280;44154;45.506;-122.806;2023-04-16T06:05:29;100891.22;;;24.23;35.51
50854;BME280;44154;45.506;-122.806;2023-04-16T06:07:55;100895.19;;;24.15;37.75
50854;BME280;44154;45.506;-122.806;2023-04-16T06:10:21;100873.25;;;24.10;37.31
50854;BME280;44154;45.506;-122.806;2023-04-16T06:12:48;100868.09;;;24.14;37.22
50854;BME280;44154;45.506;-122.806;2023-04-16T06:15:14;100894.66;;;24.52;36.47
50854;BME280;44154;45.506;-122.806;2023-04-16T06:17:40;100883.09;;;24.67;35.99
50854;BME280;44154;45.506;-122.806;2023-04-16T06:20:07;100879.16;;;24.80;35.40
50854;BME280;44154;45.506;-122.806;2023-04-16T06:22:33;100875.47;;;24.91;35.25
50854;BME280;44154;45.506;-122.806;2023-04-16T06:24:59;100882.72;;;25.03;34.56
50854;BME280;44154;45.506;-122.806;2023-04-16T06:27:26;100887.63;;;25.01;34.73
50854;BME280;44154;45.506;-122.806;2023-04-16T06:29:52;100882.63;;;24.92;34.69
50854;BME280;44154;45.506;-122.806;2023-04-16T06:32:18;100879.28;;;24.90;34.72
50854;BME280;44154;45.506;-122.806;2023-04-16T06:34:44;100881.13;;;24.85;34.61
50854;BME280;44154;45.506;-122.806;2023-04-16T06:37:12;100865.44;;;24.75;34.76
50854;BME280;44154;45.506;-122.806;2023-04-16T06:39:38;100871.22;;;24.79;34.60
50854;BME280;44154;45.506;-122.806;2023-04-16T06:42:05;100874.19;;;24.77;34.76
50854;BME280;44154;45.506;-122.806;2023-04-16T06:44:31;100861.81;;;24.69;34.52
50854;BME280;44154;45.506;-122.806;2023-04-16T06:46:57;100869.25;;;24.74;34.63
50854;BME280;44154;45.506;-122.806;2023-04-16T06:49:23;100864.78;;;24.68;34.89
50854;BME280;44154;45.506;-122.806;2023-04-16T06:51:49;100853.84;;;24.68;34.75
50854;BME280;44154;45.506;-122.806;2023-04-16T06:54:16;100861.47;;;24.66;34.53
50854;BME280;44154;45.506;-122.806;2023-04-16T06:56:43;100856.16;;;24.59;34.65
50854;BME280;44154;45.506;-122.806;2023-04-16T06:59:09;100853.91;;;24.56;34.60
50854;BME280;44154;45.506;-122.806;2023-04-16T07:01:36;100843.44;;;24.48;34.75
50854;BME280;44154;45.506;-122.806;2023-04-16T07:04:02;100831.50;;;24.37;34.72
50854;BME280;44154;45.506;-122.806;2023-04-16T07:06:28;100848.56;;;24.44;34.59
50854;BME280;44154;45.506;-122.806;2023-04-16T07:08:55;100848.13;;;24.52;35.64
50854;BME280;44154;45.506;-122.806;2023-04-16T07:11:21;100829.66;;;24.42;36.86
50854;BME280;44154;45.506;-122.806;2023-04-16T07:13:47;100830.31;;;24.50;36.15
50854;BME280;44154;45.506;-122.806;2023-04-16T07:16:13;100835.38;;;24.80;35.59
50854;BME280;44154;45.506;-122.806;2023-04-16T07:18:39;100838.28;;;24.96;35.23
50854;BME280;44154;45.506;-122.806;2023-04-16T07:21:06;100830.69;;;25.03;35.94
50854;BME280;44154;45.506;-122.806;2023-04-16T07:23:32;100811.09;;;24.89;37.41
50854;BME280;44154;45.506;-122.806;2023-04-16T07:25:58;100829.47;;;24.93;36.72
50854;BME280;44154;45.506;-122.806;2023-04-16T07:28:24;100816.53;;;24.84;35.68
50854;BME280;44154;45.506;-122.806;2023-04-16T07:30:50;100812.31;;;24.76;35.28
50854;BME280;44154;45.506;-122.806;2023-04-16T07:33:17;100811.69;;;24.69;35.13
50854;BME280;44154;45.506;-122.806;2023-04-16T07:35:43;100793.34;;;24.47;35.27
50854;BME280;44154;45.506;-122.806;2023-04-16T07:38:10;100822.69;;;24.52;35.23
50854;BME280;44154;45.506;-122.806;2023-04-16T07:40:36;100820.19;;;24.50;35.16
50854;BME280;44154;45.506;-122.806;2023-04-16T07:43:03;100770.72;;;24.13;35.29
50854;BME280;44154;45.506;-122.806;2023-04-16T07:45:29;100818.41;;;24.39;35.11
50854;BME280;44154;45.506;-122.806;2023-04-16T07:47:55;100831.50;;;24.37;35.26
50854;BME280;44154;45.506;-122.806;2023-04-16T07:50:21;100787.34;;;24.06;35.11
50854;BME280;44154;45.506;-122.806;2023-04-16T07:52:47;100837.06;;;24.42;35.59
50854;BME280;44154;45.506;-122.806;2023-04-16T07:55:14;100828.22;;;24.35;35.17
50854;BME280;44154;45.506;-122.806;2023-04-16T07:57:40;100826.47;;;24.29;35.16
50854;BME280;44154;45.506;-122.806;2023-04-16T08:00:07;100819.78;;;24.19;35.60
50854;BME280;44154;45.506;-122.806;2023-04-16T08:02:34;100823.25;;;24.32;38.35
50854;BME280;44154;45.506;-122.806;2023-04-16T08:05:00;100795.75;;;24.21;38.71
50854;BME280;44154;45.506;-122.806;2023-04-16T08:07:26;100816.53;;;24.62;37.88
50854;BME280;44154;45.506;-122.806;2023-04-16T08:09:53;100830.53;;;24.87;37.58
50854;BME280;44154;45.506;-122.806;2023-04-16T08:12:19;100826.88;;;25.04;36.40
50854;BME280;44154;45.506;-122.806;2023-04-16T08:14:46;100822.47;;;25.03;35.77
50854;BME280;44154;45.506;-122.806;2023-04-16T08:17:14;100804.81;;;24.88;35.70
50854;BME280;44154;45.506;-122.806;2023-04-16T08:19:41;100814.16;;;24.92;35.73
50854;BME280;44154;45.506;-122.806;2023-04-16T08:22:08;100800.94;;;24.84;35.80
50854;BME280;44154;45.506;-122.806;2023-04-16T08:24:34;100814.09;;;24.87;36.09
50854;BME280;44154;45.506;-122.806;2023-04-16T08:27:00;100821.16;;;24.83;36.01
50854;BME280;44154;45.506;-122.806;2023-04-16T08:29:27;100816.47;;;24.79;35.94
50854;BME280;44154;45.506;-122.806;2023-04-16T08:31:53;100810.94;;;24.73;36.25
50854;BME280;44154;45.506;-122.806;2023-04-16T08:34:20;100815.00;;;24.71;36.28
50854;BME280;44154;45.506;-122.806;2023-04-16T08:36:46;100818.28;;;24.68;36.23
50854;BME280;44154;45.506;-122.806;2023-04-16T08:39:12;100803.59;;;24.57;36.26
50854;BME280;44154;45.506;-122.806;2023-04-16T08:41:42;100816.00;;;24.65;36.74
50854;BME280;44154;45.506;-122.806;2023-04-16T08:44:13;100812.22;;;24.66;36.13
50854;BME280;44154;45.506;-122.806;2023-04-16T08:46:40;100808.91;;;24.64;36.04
50854;BME280;44154;45.506;-122.806;2023-04-16T08:49:07;100800.28;;;24.55;36.34
50854;BME280;44154;45.506;-122.806;2023-04-16T08:51:34;100808.75;;;24.53;37.58
50854;BME280;44154;45.506;-122.806;2023-04-16T08:54:11;100794.25;;;24.31;38.36
50854;BME280;44154;45.506;-122.806;2023-04-16T08:56:40;100806.00;;;24.31;37.99
50854;BME280;44154;45.506;-122.806;2023-04-16T08:59:08;100805.50;;;24.56;38.47
50854;BME280;44154;45.506;-122.806;2023-04-16T09:01:34;100803.03;;;24.77;36.76
50854;BME280;44154;45.506;-122.806;2023-04-16T09:04:02;100806.34;;;24.79;36.45
50854;BME280;44154;45.506;-122.806;2023-04-16T09:06:28;100804.09;;;24.76;36.20
50854;BME280;44154;45.506;-122.806;2023-04-16T09:08:56;100804.06;;;24.71;36.47
50854;BME280;44154;45.506;-122.806;2023-04-16T09:11:24;100801.25;;;24.66;36.43
50854;BME280;44154;45.506;-122.806;2023-04-16T09:13:51;100794.13;;;24.65;36.62
50854;BME280;44154;45.506;-122.806;2023-04-16T09:16:17;100790.50;;;24.59;36.79
50854;BME280;44154;45.506;-122.806;2023-04-16T09:18:45;100787.44;;;24.55;36.85
50854;BME280;44154;45.506;-122.806;2023-04-16T09:21:12;100799.44;;;24.54;36.82
50854;BME280;44154;45.506;-122.806;2023-04-16T09:23:39;100794.19;;;24.48;36.68
50854;BME280;44154;45.506;-122.806;2023-04-16T09:26:06;100793.22;;;24.37;37.78
50854;BME280;44154;45.506;-122.806;2023-04-16T09:28:44;100779.03;;;24.18;38.15
50854;BME280;44154;45.506;-122.806;2023-04-16T09:31:15;100781.50;;;24.19;37.79
50854;BME280;44154;45.506;-122.806;2023-04-16T09:33:43;100776.41;;;24.50;37.82
50854;BME280;44154;45.506;-122.806;2023-04-16T09:36:09;100786.25;;;24.68;36.93
50854;BME280;44154;45.506;-122.806;2023-04-16T09:38:52;100777.78;;;24.70;36.51
50854;BME280;44154;45.506;-122.806;2023-04-16T09:41:18;100781.53;;;24.64;36.48
50854;BME280;44154;45.506;-122.806;2023-04-16T09:46:24;100784.03;;;24.65;36.83
50854;BME280;44154;45.506;-122.806;2023-04-16T09:48:52;100779.78;;;24.57;36.99
50854;BME280;44154;45.506;-122.806;2023-04-16T09:51:18;100777.03;;;24.57;37.00
50854;BME280;44154;45.506;-122.806;2023-04-16T09:53:44;100784.69;;;24.55;36.96
50854;BME280;44154;45.506;-122.806;2023-04-16T09:56:11;100788.19;;;24.51;36.67
50854;BME280;44154;45.506;-122.806;2023-04-16T09:58:37;100784.06;;;24.48;36.61
50854;BME280;44154;45.506;-122.806;2023-04-16T10:01:08;100771.03;;;24.33;37.47
50854;BME280;44154;45.506;-122.806;2023-04-16T10:03:36;100768.72;;;24.25;37.63
50854;BME280;44154;45.506;-122.806;2023-04-16T10:08:59;100777.94;;;24.41;37.81
50854;BME280;44154;45.506;-122.806;2023-04-16T10:11:25;100686.81;;;24.13;37.30
50854;BME280;44154;45.506;-122.806;2023-04-16T10:13:51;100709.69;;;24.29;37.59
50854;BME280;44154;45.506;-122.806;2023-04-16T10:16:17;100779.06;;;24.62;38.17
50854;BME280;44154;45.506;-122.806;2023-04-16T10:18:45;100770.75;;;24.57;38.26
50854;BME280;44154;45.506;-122.806;2023-04-16T10:21:11;100767.72;;;24.53;37.47
50854;BME280;44154;45.506;-122.806;2023-04-16T10:23:40;100775.06;;;24.53;36.89
50854;BME280;44154;45.506;-122.806;2023-04-16T10:26:07;100771.53;;;24.52;36.72
50854;BME280;44154;45.506;-122.806;2023-04-16T10:28:33;100778.06;;;24.51;36.45
50854;BME280;44154;45.506;-122.806;2023-04-16T10:31:04;100770.72;;;24.52;36.63
50854;BME280;44154;45.506;-122.806;2023-04-16T10:33:34;100766.31;;;24.51;36.32
50854;BME280;44154;45.506;-122.806;2023-04-16T10:36:09;100770.88;;;24.45;37.04
50854;BME280;44154;45.506;-122.806;2023-04-16T10:38:59;100762.09;;;24.21;37.73
50854;BME280;44154;45.506;-122.806;2023-04-16T10:41:26;100756.31;;;24.17;37.36
50854;BME280;44154;45.506;-122.806;2023-04-16T10:43:52;100760.91;;;24.34;37.30
50854;BME280;44154;45.506;-122.806;2023-04-16T10:48:51;100745.97;;;24.64;37.27
50854;BME280;44154;45.506;-122.806;2023-04-16T10:51:29;100738.09;;;24.50;37.24
50854;BME280;44154;45.506;-122.806;2023-04-16T10:54:01;100742.00;;;24.54;37.16
50854;BME280;44154;45.506;-122.806;2023-04-16T10:56:30;100727.69;;;24.47;37.16
50854;BME280;44154;45.506;-122.806;2023-04-16T10:58:56;100737.53;;;24.48;37.14
50854;BME280;44154;45.506;-122.806;2023-04-16T11:01:42;100738.06;;;24.45;36.91
50854;BME280;44154;45.506;-122.806;2023-04-16T11:09:46;100715.34;;;24.22;37.03
50854;BME280;44154;45.506;-122.806;2023-04-16T11:12:34;100724.16;;;24.24;37.14
50854;BME280;44154;45.506;-122.806;2023-04-16T11:15:07;100698.75;;;24.07;37.19
50854;BME280;44154;45.506;-122.806;2023-04-16T11:17:49;100705.06;;;24.30;36.85
50854;BME280;44154;45.506;-122.806;2023-04-16T11:20:22;100713.28;;;24.57;36.76
50854;BME280;44154;45.506;-122.806;2023-04-16T11:22:50;100699.72;;;24.62;36.53
50854;BME280;44154;45.506;-122.806;2023-04-16T11:27:50;100679.56;;;24.51;36.65
50854;BME280;44154;45.506;-122.806;2023-04-16T11:30:17;100685.03;;;24.51;36.65
50854;BME280;44154;45.506;-122.806;2023-04-16T11:32:44;100687.75;;;24.46;36.57
50854;BME280;44154;45.506;-122.806;2023-04-16T11:35:18;100686.59;;;24.42;36.72
50854;BME280;44154;45.506;-122.806;2023-04-16T11:37:45;100690.59;;;24.34;36.73
50854;BME280;44154;45.506;-122.806;2023-04-16T11:40:13;100637.75;;;24.01;36.92
50854;BME280;44154;45.506;-122.806;2023-04-16T11:42:40;100685.66;;;24.31;36.83
50854;BME280;44154;45.506;-122.806;2023-04-16T11:45:08;100689.66;;;24.23;37.01
50854;BME280;44154;45.506;-122.806;2023-04-16T11:47:48;100664.19;;;23.96;37.15
50854;BME280;44154;45.506;-122.806;2023-04-16T11:50:22;100685.22;;;24.17;37.17
50854;BME280;44154;45.506;-122.806;2023-04-16T11:52:50;100696.44;;;24.43;36.70
50854;BME280;44154;45.506;-122.806;2023-04-16T11:55:17;100677.72;;;24.57;36.26
50854;BME280;44154;45.506;-122.806;2023-04-16T11:57:43;100678.06;;;24.61;36.21
50854;BME280;44154;45.506;-122.806;2023-04-16T12:00:11;100673.91;;;24.58;36.12
50854;BME280;44154;45.506;-122.806;2023-04-16T12:02:51;100669.47;;;24.52;36.37
50854;BME280;44154;45.506;-122.806;2023-04-16T12:05:30;100664.19;;;24.45;36.34
50854;BME280;44154;45.506;-122.806;2023-04-16T12:07:57;100666.06;;;24.39;36.43
50854;BME280;44154;45.506;-122.806;2023-04-16T12:10:24;100665.72;;;24.36;36.42
50854;BME280;44154;45.506;-122.806;2023-04-16T12:12:50;100673.38;;;24.34;36.74
50854;BME280;44154;45.506;-122.806;2023-04-16T12:15:17;100674.41;;;24.28;36.69
50854;BME280;44154;45.506;-122.806;2023-04-16T12:17:43;100670.28;;;24.25;36.59
50854;BME280;44154;45.506;-122.806;2023-04-16T12:20:13;100668.50;;;24.14;36.62
50854;BME280;44154;45.506;-122.806;2023-04-16T12:22:44;100681.41;;;24.18;36.89
50854;BME280;44154;45.506;-122.806;2023-04-16T12:25:13;100667.97;;;24.39;36.36
50854;BME280;44154;45.506;-122.806;2023-04-16T12:27:47;100671.94;;;24.53;35.96
50854;BME280;44154;45.506;-122.806;2023-04-16T12:30:16;100669.25;;;24.58;35.90
50854;BME280;44154;45.506;-122.806;2023-04-16T12:32:45;100664.00;;;24.52;35.83
50854;BME280;44154;45.506;-122.806;2023-04-16T12:35:12;100659.34;;;24.52;36.07
50854;BME280;44154;45.506;-122.806;2023-04-16T12:37:39;100654.91;;;24.46;36.10